Time;durP1;ratioP1;P1;durP2;ratioP2;P2;SDS_P1;SDS_P2;PMS_P1;PMS_P2;Temp;Humidity;BMP_temperature;BMP_pressure;BME280_temperature;BME280_humidity;BME280_pressure;Samples;Min_cycle;Max_cycle;Signal;HPM_P1;HPM_P2
2021/11/04 00:01:26;;;;;;;9.00;6.70;;;7.20;99.90;;;;;;6150644;23;20152;-77
2021/11/04 00:03:52;;;;;;;12.47;7.90;;;7.20;99.90;;;;;;6150782;23;20638;-78
2021/11/04 00:06:17;;;;;;;9.80;7.63;;;7.20;99.90;;;;;;6124323;23;20183;-77
2021/11/04 00:08:43;;;;;;;10.80;7.53;;;7.10;99.90;;;;;;6150582;23;20307;-77
2021/11/04 00:11:08;;;;;;;11.97;8.77;;;7.10;99.90;;;;;;6124719;23;20159;-77
2021/11/04 00:13:34;;;;;;;11.90;8.13;;;7.10;99.90;;;;;;6124510;23;20167;-77
2021/11/04 00:16:00;;;;;;;12.17;7.30;;;7.20;99.90;;;;;;6152506;23;20555;-77
2021/11/04 00:18:26;;;;;;;9.43;7.50;;;7.20;99.90;;;;;;6150593;23;20195;-78
2021/11/04 00:20:51;;;;;;;9.30;6.97;;;7.20;99.90;;;;;;6124814;23;20166;-78
2021/11/04 00:23:17;;;;;;;10.40;7.33;;;7.20;99.90;;;;;;6150536;23;20156;-78
2021/11/04 00:25:43;;;;;;;10.37;7.10;;;7.20;99.90;;;;;;6150656;23;20493;-76
2021/11/04 00:28:08;;;;;;;9.77;7.37;;;7.20;99.90;;;;;;6125029;23;20679;-78
2021/11/04 00:30:34;;;;;;;8.97;6.80;;;7.20;99.90;;;;;;6150688;23;20156;-79
2021/11/04 00:33:00;;;;;;;9.23;6.90;;;7.20;99.90;;;;;;6150653;23;20190;-76
2021/11/04 00:35:26;;;;;;;9.00;6.90;;;7.20;99.90;;;;;;6150491;23;20194;-77
2021/11/04 00:37:51;;;;;;;8.43;7.10;;;7.20;99.90;;;;;;6150599;23;20183;-76
2021/11/04 00:40:21;;;;;;;10.10;7.40;;;7.20;99.90;;;;;;6124383;23;20160;-76
2021/11/04 00:42:46;;;;;;;10.20;7.20;;;7.20;99.90;;;;;;6151585;23;20159;-78
2021/11/04 00:45:12;;;;;;;8.37;6.93;;;7.20;99.90;;;;;;6150930;23;20225;-78
2021/11/04 00:47:38;;;;;;;9.30;7.40;;;7.20;99.90;;;;;;6150815;23;20178;-76
2021/11/04 00:50:06;;;;;;;8.93;6.73;;;7.20;99.90;;;;;;6150584;23;20560;-78
2021/11/04 00:52:32;;;;;;;9.60;6.63;;;7.20;99.90;;;;;;6150234;23;20152;-75
2021/11/04 00:54:58;;;;;;;9.63;6.43;;;7.30;99.90;;;;;;6150992;23;20162;-74
2021/11/04 00:57:23;;;;;;;8.87;6.63;;;7.30;99.90;;;;;;6150988;23;20266;-78
2021/11/04 00:59:49;;;;;;;9.07;7.03;;;7.30;99.90;;;;;;6124134;23;20287;-76
2021/11/04 01:02:15;;;;;;;8.83;7.10;;;7.30;99.90;;;;;;6150884;23;20166;-78
2021/11/04 01:04:41;;;;;;;8.97;6.80;;;7.50;99.90;;;;;;6150840;23;20713;-74
2021/11/04 01:07:06;;;;;;;10.77;7.00;;;7.30;99.90;;;;;;6150622;23;20164;-78
2021/11/04 01:09:32;;;;;;;7.40;6.57;;;7.30;99.90;;;;;;6124439;23;20174;-78
2021/11/04 01:11:58;;;;;;;10.13;7.20;;;7.30;99.90;;;;;;6123891;23;20163;-77
2021/11/04 01:14:23;;;;;;;8.20;6.50;;;7.20;99.90;;;;;;6150620;23;20205;-77
2021/11/04 01:16:49;;;;;;;8.60;6.33;;;7.20;99.90;;;;;;6124005;23;20671;-77
2021/11/04 01:19:15;;;;;;;8.53;6.37;;;7.20;99.90;;;;;;6150006;23;20282;-77
2021/11/04 01:21:41;;;;;;;9.23;7.07;;;7.40;99.90;;;;;;6166644;23;20215;-76
2021/11/04 01:24:06;;;;;;;8.47;6.70;;;7.40;99.90;;;;;;6167395;23;20155;-76
2021/11/04 01:26:32;;;;;;;9.13;6.97;;;7.30;99.90;;;;;;6167972;23;20151;-74
2021/11/04 01:28:58;;;;;;;8.50;6.87;;;7.30;99.90;;;;;;6169705;23;20263;-73
2021/11/04 01:31:23;;;;;;;9.03;7.17;;;7.30;99.90;;;;;;6169284;23;20156;-75
2021/11/04 01:33:49;;;;;;;9.27;6.63;;;7.20;99.90;;;;;;6168765;23;20155;-76
2021/11/04 01:36:15;;;;;;;8.57;6.90;;;7.20;99.90;;;;;;6169553;23;20199;-75
2021/11/04 01:38:40;;;;;;;7.37;6.30;;;7.30;99.90;;;;;;6170450;23;20183;-75
2021/11/04 01:41:06;;;;;;;8.87;6.53;;;7.30;99.90;;;;;;6144201;23;20164;-75
2021/11/04 01:43:31;;;;;;;10.63;6.40;;;7.20;99.90;;;;;;6169522;23;20160;-75
2021/11/04 01:45:57;;;;;;;8.47;6.67;;;7.20;99.90;;;;;;6170273;23;20152;-76
2021/11/04 01:48:23;;;;;;;9.60;6.97;;;7.20;99.90;;;;;;6144910;23;20184;-76
2021/11/04 01:50:49;;;;;;;11.70;7.27;;;7.20;99.90;;;;;;6170012;23;20166;-75
2021/11/04 01:53:19;;;;;;;10.80;7.80;;;7.20;99.90;;;;;;6142938;23;20168;-76
2021/11/04 01:55:45;;;;;;;10.00;7.17;;;7.20;99.90;;;;;;6168248;23;20206;-75
2021/11/04 01:58:10;;;;;;;12.53;8.00;;;7.20;99.90;;;;;;6163440;23;20180;-80
2021/11/04 02:00:36;;;;;;;10.10;7.50;;;7.20;99.90;;;;;;6152943;23;20163;-78
2021/11/04 02:03:20;;;;;;;10.20;7.47;;;7.20;99.90;;;;;;6151271;23;20163;-79
2021/11/04 02:05:48;;;;;;;11.47;7.43;;;7.20;99.90;;;;;;6152408;23;20992;-78
2021/11/04 02:08:20;;;;;;;11.23;7.60;;;7.20;99.90;;;;;;6151853;23;20231;-79
2021/11/04 02:10:59;;;;;;;11.93;8.57;;;7.20;99.90;;;;;;6151129;23;20166;-76
2021/11/04 02:13:48;;;;;;;12.30;7.90;;;7.30;99.90;;;;;;6125381;23;20155;-79
2021/11/04 02:16:16;;;;;;;10.47;8.10;;;7.20;99.90;;;;;;6125340;23;20156;-79
2021/11/04 02:18:43;;;;;;;13.10;8.47;;;7.20;99.90;;;;;;6150590;23;20440;-79
2021/11/04 02:21:21;;;;;;;11.67;8.30;;;7.20;99.90;;;;;;6124766;23;20160;-79
2021/11/04 02:24:12;;;;;;;10.87;7.83;;;7.20;99.90;;;;;;6150742;23;20135;-79
2021/11/04 02:26:38;;;;;;;10.77;8.17;;;7.20;99.90;;;;;;6151734;23;20140;-79
2021/11/04 02:29:05;;;;;;;10.87;7.87;;;7.20;99.90;;;;;;6150841;23;21106;-78
2021/11/04 02:31:32;;;;;;;10.57;7.43;;;7.20;99.90;;;;;;6151102;23;20239;-79
2021/11/04 02:33:58;;;;;;;10.23;7.80;;;7.20;99.90;;;;;;6150882;23;20273;-79
2021/11/04 02:36:25;;;;;;;10.13;7.20;;;7.20;99.90;;;;;;6124293;23;20187;-78
2021/11/04 02:38:51;;;;;;;10.20;7.50;;;7.30;99.90;;;;;;6124753;23;20588;-78
2021/11/04 02:41:18;;;;;;;9.77;7.23;;;7.20;99.90;;;;;;6150119;23;20175;-79
2021/11/04 02:43:44;;;;;;;9.67;7.37;;;7.20;99.90;;;;;;6149250;23;20163;-77
2021/11/04 02:46:12;;;;;;;9.47;7.27;;;7.20;99.90;;;;;;6124059;23;20156;-80
2021/11/04 02:48:40;;;;;;;10.57;7.60;;;7.20;99.90;;;;;;6148963;23;20179;-77
2021/11/04 02:51:06;;;;;;;9.97;6.80;;;7.10;99.90;;;;;;6148010;23;20163;-79
2021/11/04 02:53:31;;;;;;;9.63;7.33;;;7.10;99.90;;;;;;6147432;23;20152;-77
2021/11/04 02:55:57;;;;;;;9.57;7.23;;;7.20;99.90;;;;;;6119991;23;20568;-77
2021/11/04 02:58:24;;;;;;;9.27;6.50;;;7.20;99.90;;;;;;6146046;23;20187;-77
2021/11/04 03:01:03;;;;;;;8.27;5.90;;;7.20;99.90;;;;;;6123122;23;20155;-79
2021/11/04 03:03:29;;;;;;;7.43;5.30;;;7.20;99.90;;;;;;6149830;23;20136;-79
2021/11/04 03:05:54;;;;;;;8.63;6.00;;;7.10;99.90;;;;;;6124472;23;20170;-79
2021/11/04 03:08:20;;;;;;;9.20;6.23;;;7.10;99.90;;;;;;6150044;23;20576;-79
2021/11/04 03:10:46;;;;;;;7.47;5.50;;;7.20;99.90;;;;;;6150194;23;20513;-78
2021/11/04 03:13:11;;;;;;;7.90;5.87;;;7.20;99.90;;;;;;6123349;23;20771;-79
2021/11/04 03:15:40;;;;;;;7.57;5.23;;;7.10;99.90;;;;;;6122359;23;20258;-79
2021/11/04 03:18:06;;;;;;;9.37;6.27;;;7.10;99.90;;;;;;6149935;23;20195;-76
2021/11/04 03:20:34;;;;;;;9.50;6.57;;;7.10;99.90;;;;;;6150598;23;20159;-79
2021/11/04 03:23:01;;;;;;;8.40;6.33;;;7.10;99.90;;;;;;6150704;23;20223;-79
2021/11/04 03:25:26;;;;;;;8.63;6.40;;;7.10;99.90;;;;;;6123983;23;20163;-78
2021/11/04 03:27:54;;;;;;;9.30;6.43;;;7.10;99.90;;;;;;6149975;23;20179;-78
2021/11/04 03:30:23;;;;;;;9.30;7.00;;;7.10;99.90;;;;;;6149826;23;20179;-80
2021/11/04 03:32:51;;;;;;;10.80;6.97;;;7.10;99.90;;;;;;6150157;23;20155;-79
2021/11/04 03:35:17;;;;;;;8.63;6.13;;;7.10;99.90;;;;;;6150353;23;20524;-77
2021/11/04 03:37:46;;;;;;;9.73;6.60;;;7.10;99.90;;;;;;6149895;23;20516;-80
2021/11/04 03:40:13;;;;;;;9.37;6.97;;;7.10;99.90;;;;;;6124352;23;20187;-79
2021/11/04 03:42:40;;;;;;;10.63;7.90;;;7.20;99.90;;;;;;6149589;23;20155;-78
2021/11/04 03:45:08;;;;;;;10.13;7.13;;;7.20;99.90;;;;;;6124359;23;20214;-77
2021/11/04 03:47:35;;;;;;;10.57;8.07;;;7.10;99.90;;;;;;6123893;23;20184;-80
2021/11/04 03:50:03;;;;;;;11.13;7.43;;;7.20;99.90;;;;;;6150951;23;20152;-79
2021/11/04 03:52:29;;;;;;;11.40;8.07;;;7.20;99.90;;;;;;6152115;23;20159;-79
2021/11/04 03:54:55;;;;;;;11.10;8.03;;;7.20;99.90;;;;;;6152726;23;20187;-80
2021/11/04 03:57:25;;;;;;;12.37;8.60;;;7.20;99.90;;;;;;6151555;23;20244;-77
2021/11/04 03:59:52;;;;;;;11.90;8.60;;;7.20;99.90;;;;;;6151775;23;20322;-79
2021/11/04 04:02:22;;;;;;;11.63;8.80;;;7.20;99.90;;;;;;6151927;23;20216;-79
2021/11/04 04:04:56;;;;;;;12.83;8.83;;;7.20;99.90;;;;;;6152393;23;20143;-79
2021/11/04 04:07:28;;;;;;;13.20;9.23;;;7.20;99.90;;;;;;6151735;23;20554;-80
2021/11/04 04:09:55;;;;;;;14.40;9.57;;;7.20;99.90;;;;;;6126658;23;20159;-77
2021/11/04 04:12:21;;;;;;;13.27;9.93;;;7.20;99.90;;;;;;6125866;23;20168;-79
2021/11/04 04:14:46;;;;;;;13.67;9.30;;;7.30;99.90;;;;;;6152624;23;20235;-79
2021/11/04 04:17:12;;;;;;;14.17;9.67;;;7.30;99.90;;;;;;6125911;23;20191;-77
2021/11/04 04:19:38;;;;;;;14.80;10.90;;;7.30;99.90;;;;;;6151313;23;20243;-77
2021/11/04 04:22:04;;;;;;;15.40;10.40;;;7.20;99.90;;;;;;6152865;23;20148;-79
2021/11/04 04:24:33;;;;;;;15.40;10.17;;;7.20;99.90;;;;;;6126390;23;20189;-81
2021/11/04 04:27:00;;;;;;;15.63;10.17;;;7.20;99.90;;;;;;6150603;23;20159;-79
2021/11/04 04:29:27;;;;;;;15.10;10.63;;;7.20;99.90;;;;;;6151212;23;20182;-79
2021/11/04 04:31:53;;;;;;;14.50;9.97;;;7.10;99.90;;;;;;6123718;23;20167;-79
2021/11/04 04:34:20;;;;;;;16.23;10.70;;;7.10;99.90;;;;;;6124140;23;20608;-80
2021/11/04 04:36:45;;;;;;;15.27;10.13;;;7.20;99.90;;;;;;6125142;23;20229;-77
2021/11/04 04:39:11;;;;;;;16.27;10.70;;;7.20;99.90;;;;;;6151273;23;20511;-77
2021/11/04 04:41:37;;;;;;;16.37;11.07;;;7.20;99.90;;;;;;6151325;23;20166;-78
2021/11/04 04:44:02;;;;;;;15.70;9.87;;;7.20;99.90;;;;;;6151737;23;20167;-79
2021/11/04 04:46:28;;;;;;;16.07;10.40;;;7.10;99.90;;;;;;6152148;23;20164;-80
2021/11/04 04:48:54;;;;;;;15.83;9.93;;;7.00;99.90;;;;;;6150652;23;20176;-79
2021/11/04 04:51:19;;;;;;;16.07;10.17;;;7.00;99.90;;;;;;6126000;23;20172;-78
2021/11/04 04:53:45;;;;;;;13.97;9.70;;;7.10;99.90;;;;;;6126110;23;20218;-80
2021/11/04 04:56:11;;;;;;;16.57;11.03;;;7.00;99.90;;;;;;6151942;23;20156;-77
2021/11/04 04:58:36;;;;;;;15.57;10.03;;;7.10;99.90;;;;;;6151851;23;20195;-79
2021/11/04 05:01:02;;;;;;;15.40;9.83;;;7.10;99.90;;;;;;6151248;23;20692;-79
2021/11/04 05:03:28;;;;;;;15.83;9.73;;;7.00;99.90;;;;;;6151530;23;20503;-80
2021/11/04 05:05:54;;;;;;;18.13;11.07;;;7.00;99.90;;;;;;6151736;23;20159;-77
2021/11/04 05:08:19;;;;;;;15.93;10.07;;;7.10;99.90;;;;;;6125618;23;20187;-79
2021/11/04 05:10:45;;;;;;;13.83;10.07;;;7.10;99.90;;;;;;6152626;23;20167;-79
2021/11/04 05:13:11;;;;;;;13.83;9.17;;;7.10;99.90;;;;;;6151473;23;20156;-80
2021/11/04 05:15:36;;;;;;;14.60;9.00;;;7.10;99.90;;;;;;6152608;23;20187;-77
2021/11/04 05:18:04;;;;;;;13.87;8.80;;;7.00;99.90;;;;;;6151690;23;20195;-80
2021/11/04 05:20:30;;;;;;;13.77;9.00;;;7.00;99.90;;;;;;6125135;23;20156;-80
2021/11/04 05:22:55;;;;;;;15.20;9.87;;;7.10;99.90;;;;;;6124626;23;20156;-81
2021/11/04 05:25:21;;;;;;;11.97;8.23;;;7.10;99.90;;;;;;6151092;23;20183;-80
2021/11/04 05:27:47;;;;;;;14.83;8.60;;;7.10;99.90;;;;;;6151312;23;20176;-78
2021/11/04 05:30:15;;;;;;;12.70;8.10;;;7.10;99.90;;;;;;6150778;23;20159;-79
2021/11/04 05:32:41;;;;;;;11.63;8.00;;;7.10;99.90;;;;;;6150769;23;20313;-79
2021/11/04 05:35:07;;;;;;;12.87;8.33;;;7.10;99.90;;;;;;6150811;23;20160;-80
2021/11/04 05:37:32;;;;;;;14.43;8.33;;;7.10;99.90;;;;;;6124747;23;20262;-80
2021/11/04 05:39:58;;;;;;;10.60;7.80;;;7.10;99.90;;;;;;6150795;23;20250;-79
2021/11/04 05:42:24;;;;;;;14.30;8.53;;;7.10;99.90;;;;;;6150806;23;20156;-80
2021/11/04 05:44:50;;;;;;;12.20;8.07;;;7.10;99.90;;;;;;6151441;23;20162;-77
2021/11/04 05:47:16;;;;;;;12.83;8.47;;;7.10;99.90;;;;;;6124623;23;20247;-80
2021/11/04 05:49:42;;;;;;;12.57;8.33;;;7.10;99.90;;;;;;6123898;23;20168;-77
2021/11/04 05:52:08;;;;;;;12.23;8.23;;;7.20;99.90;;;;;;6124233;23;20611;-78
2021/11/04 05:54:35;;;;;;;12.97;8.50;;;7.10;99.90;;;;;;6150050;23;20155;-78
2021/11/04 05:57:01;;;;;;;13.83;8.47;;;7.10;99.90;;;;;;6150009;23;20162;-78
2021/11/04 05:59:27;;;;;;;12.53;8.83;;;7.10;99.90;;;;;;6149495;23;20184;-78
2021/11/04 06:01:53;;;;;;;11.83;8.03;;;7.20;99.90;;;;;;6123437;23;20187;-78
2021/11/04 06:04:20;;;;;;;12.47;8.43;;;7.20;99.90;;;;;;6123789;23;20206;-78
2021/11/04 06:06:46;;;;;;;11.43;7.90;;;7.20;99.90;;;;;;6150358;23;20164;-80
2021/11/04 06:09:11;;;;;;;11.77;7.33;;;7.20;99.90;;;;;;6123574;23;20215;-78
2021/11/04 06:11:38;;;;;;;11.67;7.93;;;7.20;99.90;;;;;;6149610;23;20725;-79
2021/11/04 06:14:05;;;;;;;12.10;7.73;;;7.10;99.90;;;;;;6149622;23;20182;-80
2021/11/04 06:16:31;;;;;;;12.07;7.87;;;7.10;99.90;;;;;;6149238;23;20210;-77
2021/11/04 06:18:56;;;;;;;12.27;8.13;;;7.10;99.90;;;;;;6148837;23;20196;-77
2021/11/04 06:21:22;;;;;;;12.83;7.53;;;7.10;99.90;;;;;;6149720;23;20160;-77
2021/11/04 06:23:47;;;;;;;11.07;7.63;;;7.10;99.90;;;;;;6148119;23;20152;-77
2021/11/04 06:26:14;;;;;;;13.73;9.17;;;7.00;99.90;;;;;;6148433;23;20167;-78
2021/11/04 06:28:40;;;;;;;10.83;7.40;;;7.10;99.90;;;;;;6148127;23;20185;-76
2021/11/04 06:31:06;;;;;;;11.97;7.80;;;7.10;99.90;;;;;;6147304;23;20195;-79
2021/11/04 06:33:31;;;;;;;11.97;7.67;;;7.00;99.90;;;;;;6120017;23;20164;-77
2021/11/04 06:35:57;;;;;;;11.40;7.27;;;7.00;99.90;;;;;;6146127;23;20156;-78
2021/11/04 06:38:23;;;;;;;11.97;7.03;;;7.00;99.90;;;;;;6149621;23;20211;-80
2021/11/04 06:40:48;;;;;;;10.80;6.30;;;7.10;99.90;;;;;;6151171;23;20214;-80
2021/11/04 06:43:14;;;;;;;10.57;6.93;;;7.00;99.90;;;;;;6150987;23;20487;-80
2021/11/04 06:45:48;;;;;;;8.93;6.37;;;7.10;99.90;;;;;;6151638;23;20155;-78
2021/11/04 06:48:21;;;;;;;10.83;6.57;;;7.00;99.90;;;;;;6150906;23;20176;-77
2021/11/04 06:50:49;;;;;;;7.87;6.10;;;7.10;99.90;;;;;;6150709;23;20202;-78
2021/11/04 06:53:20;;;;;;;8.87;5.77;;;7.10;99.90;;;;;;6150960;23;20164;-76
2021/11/04 06:55:50;;;;;;;8.30;5.73;;;7.10;99.90;;;;;;6150772;23;20148;-77
2021/11/04 06:58:18;;;;;;;9.53;6.13;;;7.10;99.90;;;;;;6148713;23;20243;-77
2021/11/04 07:00:46;;;;;;;9.17;6.67;;;7.10;99.90;;;;;;6149991;23;20162;-79
2021/11/04 07:03:20;;;;;;;9.30;6.10;;;7.10;99.90;;;;;;6123605;23;20160;-80
2021/11/04 07:05:46;;;;;;;9.63;6.70;;;7.10;99.90;;;;;;6151703;23;20986;-76
2021/11/04 07:08:24;;;;;;;10.27;7.07;;;7.10;99.90;;;;;;6150731;23;20176;-79
2021/11/04 07:11:01;;;;;;;8.37;6.07;;;7.10;99.90;;;;;;6151499;23;20162;-80
2021/11/04 07:13:32;;;;;;;9.27;6.50;;;7.10;99.90;;;;;;6147048;23;20734;-79
2021/11/04 07:15:59;;;;;;;11.97;7.83;;;7.10;99.90;;;;;;6124500;23;20156;-79
2021/11/04 07:18:25;;;;;;;8.77;6.03;;;7.10;99.90;;;;;;6149686;23;20188;-77
2021/11/04 07:21:20;;;;;;;8.50;6.13;;;7.00;99.90;;;;;;6123964;23;20236;-79
2021/11/04 07:24:04;;;;;;;9.60;6.73;;;7.10;99.90;;;;;;6150185;23;20148;-80
2021/11/04 07:26:39;;;;;;;11.53;6.70;;;7.10;99.90;;;;;;6124589;23;20172;-78
2021/11/04 07:29:06;;;;;;;9.40;6.93;;;7.10;99.90;;;;;;6123401;23;20190;-78
2021/11/04 07:31:38;;;;;;;11.63;7.13;;;7.10;99.90;;;;;;6121907;23;20159;-79
2021/11/04 07:34:06;;;;;;;9.93;7.10;;;7.20;99.90;;;;;;6122644;23;20247;-79
2021/11/04 07:36:34;;;;;;;8.77;6.57;;;7.20;99.90;;;;;;6151700;23;20159;-79
2021/11/04 07:39:00;;;;;;;9.53;7.10;;;7.20;99.90;;;;;;6150817;23;20650;-78
2021/11/04 07:41:29;;;;;;;8.97;6.73;;;7.10;99.90;;;;;;6150625;23;20148;-77
2021/11/04 07:43:56;;;;;;;10.57;6.53;;;7.10;99.90;;;;;;6151223;23;20152;-79
2021/11/04 07:46:22;;;;;;;9.77;7.37;;;7.10;99.90;;;;;;6150340;23;20152;-77
2021/11/04 07:48:48;;;;;;;9.13;6.33;;;7.20;99.90;;;;;;6149892;23;20179;-79
2021/11/04 07:51:14;;;;;;;9.90;6.17;;;7.20;99.90;;;;;;6148748;23;20235;-78
2021/11/04 07:53:40;;;;;;;7.47;5.60;;;7.20;99.90;;;;;;6148175;23;20183;-79
2021/11/04 07:56:06;;;;;;;8.37;5.77;;;7.10;99.90;;;;;;6122661;23;20294;-77
2021/11/04 07:58:32;;;;;;;9.23;6.33;;;7.10;99.90;;;;;;6147455;23;20267;-79
2021/11/04 08:01:05;;;;;;;10.67;7.00;;;7.10;99.90;;;;;;6121526;23;20163;-77
2021/11/04 08:03:31;;;;;;;9.37;6.70;;;7.10;99.90;;;;;;6147146;23;20167;-79
2021/11/04 08:05:57;;;;;;;8.03;6.03;;;7.10;99.90;;;;;;6148328;23;20156;-79
2021/11/04 08:08:22;;;;;;;11.60;7.33;;;7.10;99.90;;;;;;6118494;23;20586;-78
2021/11/04 08:10:52;;;;;;;13.57;7.33;;;7.10;99.90;;;;;;6147686;23;20255;-78
2021/11/04 08:13:18;;;;;;;12.40;7.70;;;7.10;99.90;;;;;;6147303;23;20166;-79
2021/11/04 08:15:43;;;;;;;9.87;6.50;;;7.20;99.90;;;;;;6121665;23;20254;-78
2021/11/04 08:18:10;;;;;;;10.57;6.30;;;7.20;99.90;;;;;;6121075;23;20199;-82
2021/11/04 08:20:37;;;;;;;10.57;6.40;;;7.10;99.90;;;;;;6121493;23;20174;-77
2021/11/04 08:23:14;;;;;;;10.57;7.33;;;7.20;99.90;;;;;;6146879;23;20187;-79
2021/11/04 08:25:41;;;;;;;8.77;6.07;;;7.20;99.90;;;;;;6147276;23;20148;-77
2021/11/04 08:28:07;;;;;;;8.93;6.77;;;7.20;99.90;;;;;;6148090;23;20235;-77
2021/11/04 08:30:33;;;;;;;9.93;6.47;;;7.20;99.90;;;;;;6120857;23;20164;-80
2021/11/04 08:32:59;;;;;;;10.07;6.80;;;7.20;99.90;;;;;;6120860;23;20218;-79
2021/11/04 08:35:25;;;;;;;9.57;6.80;;;7.20;99.90;;;;;;6122320;23;20643;-80
2021/11/04 08:37:51;;;;;;;10.23;6.80;;;7.20;99.90;;;;;;6124324;23;20190;-78
2021/11/04 08:40:17;;;;;;;11.57;7.77;;;7.30;99.90;;;;;;6149401;23;20198;-79
2021/11/04 08:42:42;;;;;;;9.13;6.00;;;7.30;99.90;;;;;;6148709;23;20152;-79
2021/11/04 08:45:09;;;;;;;8.43;6.00;;;7.30;99.90;;;;;;6122930;23;20694;-78
2021/11/04 08:47:35;;;;;;;9.83;6.80;;;7.30;99.90;;;;;;6149642;23;20172;-78
2021/11/04 08:50:03;;;;;;;9.00;6.00;;;7.20;99.90;;;;;;6149149;23;20543;-80
2021/11/04 08:52:29;;;;;;;10.00;6.77;;;7.30;99.90;;;;;;6148604;23;20712;-77
2021/11/04 08:54:55;;;;;;;9.80;6.50;;;7.30;99.90;;;;;;6149064;23;20515;-78
2021/11/04 08:57:21;;;;;;;8.63;5.80;;;7.20;99.90;;;;;;6147883;23;20466;-79
2021/11/04 08:59:47;;;;;;;9.97;7.07;;;7.30;99.90;;;;;;6115282;23;20678;-79
2021/11/04 09:02:14;;;;;;;10.23;6.37;;;7.30;99.90;;;;;;6143948;23;20155;-80
2021/11/04 09:04:42;;;;;;;9.67;6.63;;;7.30;99.90;;;;;;6119346;23;20477;-79
2021/11/04 09:07:10;;;;;;;10.07;6.37;;;7.30;99.90;;;;;;6145354;23;20151;-79
2021/11/04 09:09:36;;;;;;;8.97;5.77;;;7.30;99.90;;;;;;6141396;23;20164;-79
2021/11/04 09:12:02;;;;;;;8.80;6.07;;;7.30;99.90;;;;;;6119247;23;20175;-80
2021/11/04 09:14:28;;;;;;;8.97;6.23;;;7.20;99.90;;;;;;6142671;23;20539;-80
2021/11/04 09:16:54;;;;;;;9.57;5.93;;;7.30;99.90;;;;;;6145239;23;20397;-80
2021/11/04 09:19:19;;;;;;;7.20;5.33;;;7.20;99.90;;;;;;6118546;23;20203;-80
2021/11/04 09:21:45;;;;;;;9.13;5.73;;;7.30;99.90;;;;;;6143985;23;20239;-79
2021/11/04 09:24:11;;;;;;;9.30;5.70;;;7.30;99.90;;;;;;6146069;23;20151;-79
2021/11/04 09:26:37;;;;;;;8.53;5.23;;;7.30;99.90;;;;;;6118744;23;20170;-80
2021/11/04 09:29:04;;;;;;;7.53;5.77;;;7.30;99.90;;;;;;6114783;23;20187;-80
2021/11/04 09:31:29;;;;;;;6.90;5.20;;;7.40;99.90;;;;;;6143562;23;20255;-80
2021/11/04 09:33:57;;;;;;;7.00;5.37;;;7.40;99.90;;;;;;6144878;23;20608;-80
2021/11/04 09:36:28;;;;;;;7.43;5.43;;;7.40;99.90;;;;;;6143642;23;20156;-77
2021/11/04 09:38:54;;;;;;;7.03;5.30;;;7.50;99.90;;;;;;6118028;23;20671;-79
2021/11/04 09:41:20;;;;;;;8.27;5.77;;;7.40;99.90;;;;;;6144052;23;20151;-79
2021/11/04 09:43:46;;;;;;;6.63;4.97;;;7.40;99.90;;;;;;6145323;23;20179;-80
2021/11/04 09:46:12;;;;;;;6.53;4.83;;;7.40;99.90;;;;;;6119888;23;20482;-79
2021/11/04 09:48:38;;;;;;;8.10;5.77;;;7.40;99.90;;;;;;6145188;23;20176;-80
2021/11/04 09:51:05;;;;;;;7.13;4.80;;;7.40;99.90;;;;;;6145732;23;20156;-79
2021/11/04 09:53:31;;;;;;;7.77;5.43;;;7.40;99.90;;;;;;6119480;23;20181;-80
2021/11/04 09:55:59;;;;;;;7.63;5.27;;;7.40;99.90;;;;;;6119361;23;20219;-79
2021/11/04 09:58:25;;;;;;;7.93;5.47;;;7.40;99.90;;;;;;6145468;23;20211;-78
2021/11/04 10:00:51;;;;;;;7.43;5.13;;;7.40;99.90;;;;;;6117108;23;20152;-79
2021/11/04 10:03:17;;;;;;;9.23;5.20;;;7.40;99.90;;;;;;6137829;23;20364;-78
2021/11/04 10:05:51;;;;;;;7.40;5.27;;;7.40;99.90;;;;;;6143714;23;20159;-78
2021/11/04 10:08:38;;;;;;;7.63;5.67;;;7.50;99.90;;;;;;6139137;23;20512;-77
2021/11/04 10:11:12;;;;;;;7.80;5.50;;;7.40;99.90;;;;;;6142048;23;20147;-78
2021/11/04 10:13:41;;;;;;;7.10;5.30;;;7.40;99.90;;;;;;6145720;23;20148;-80
2021/11/04 10:16:07;;;;;;;9.13;5.67;;;7.40;99.90;;;;;;6145498;23;20164;-80
2021/11/04 10:18:44;;;;;;;7.10;4.80;;;7.40;99.90;;;;;;6145558;23;20195;-80
2021/11/04 10:21:10;;;;;;;8.23;5.47;;;7.40;99.90;;;;;;6144702;23;20183;-79
2021/11/04 10:23:42;;;;;;;10.07;6.27;;;7.50;99.90;;;;;;6143461;23;20588;-80
2021/11/04 10:26:20;;;;;;;9.43;6.10;;;7.50;99.90;;;;;;6146701;23;20147;-80
2021/11/04 10:28:48;;;;;;;8.30;6.20;;;7.60;99.90;;;;;;6144679;23;20179;-80
2021/11/04 10:31:20;;;;;;;10.57;6.13;;;7.60;99.90;;;;;;6144816;23;20659;-80
2021/11/04 10:33:51;;;;;;;8.80;6.00;;;7.60;99.90;;;;;;6144987;23;20159;-79
2021/11/04 10:36:21;;;;;;;9.13;6.07;;;7.60;99.90;;;;;;6144058;23;20148;-80
2021/11/04 10:38:51;;;;;;;7.67;5.47;;;7.50;99.90;;;;;;6145181;23;20198;-79
2021/11/04 10:41:29;;;;;;;8.73;5.40;;;7.60;99.90;;;;;;6144967;23;20151;-79
2021/11/04 10:44:19;;;;;;;8.73;5.80;;;7.50;99.90;;;;;;6144503;23;20146;-80
2021/11/04 10:46:51;;;;;;;8.47;5.33;;;7.60;99.90;;;;;;6145146;23;20178;-80
2021/11/04 10:49:19;;;;;;;11.07;5.87;;;7.50;99.90;;;;;;6119017;23;20190;-79
2021/11/04 10:51:53;;;;;;;8.37;5.23;;;7.50;99.90;;;;;;6145004;23;20155;-80
2021/11/04 10:54:19;;;;;;;7.10;5.33;;;7.60;99.90;;;;;;6145504;23;20288;-79
2021/11/04 10:56:49;;;;;;;7.03;5.23;;;7.60;99.90;;;;;;6119345;23;20222;-80
2021/11/04 10:59:17;;;;;;;7.67;4.97;;;7.60;99.90;;;;;;6144832;23;20183;-79
2021/11/04 11:01:48;;;;;;;7.47;5.70;;;7.60;99.90;;;;;;6119068;23;20801;-78
2021/11/04 11:04:19;;;;;;;7.60;5.53;;;7.60;99.90;;;;;;6145937;23;20136;-80
2021/11/04 11:06:50;;;;;;;7.37;5.67;;;7.60;99.90;;;;;;6146472;23;20837;-80
2021/11/04 11:09:17;;;;;;;8.47;5.63;;;7.60;99.90;;;;;;6143494;23;20699;-80
2021/11/04 11:11:51;;;;;;;9.13;5.80;;;7.60;99.90;;;;;;6141216;23;20148;-80
2021/11/04 11:14:18;;;;;;;8.53;5.47;;;7.60;99.90;;;;;;6143484;23;20147;-80
2021/11/04 11:16:47;;;;;;;8.40;5.70;;;7.70;99.90;;;;;;6119599;23;20160;-81
2021/11/04 11:19:30;;;;;;;8.60;5.17;;;7.70;99.90;;;;;;6145340;23;20202;-80
2021/11/04 11:21:57;;;;;;;8.07;5.13;;;7.70;99.90;;;;;;6144211;23;20607;-80
2021/11/04 11:24:29;;;;;;;7.90;5.40;;;7.70;99.90;;;;;;6145632;23;20526;-81
2021/11/04 11:26:57;;;;;;;7.70;5.40;;;7.70;99.90;;;;;;6146779;23;20193;-78
2021/11/04 11:29:23;;;;;;;6.13;4.47;;;7.70;99.90;;;;;;6145925;23;20506;-80
2021/11/04 11:31:55;;;;;;;9.40;5.20;;;7.70;99.90;;;;;;6145315;23;20167;-80
2021/11/04 11:34:22;;;;;;;7.33;5.20;;;7.70;99.90;;;;;;6146072;23;20183;-80
2021/11/04 11:37:15;;;;;;;7.27;4.97;;;7.70;99.90;;;;;;6118513;23;20171;-80
2021/11/04 11:39:48;;;;;;;7.33;5.57;;;7.80;99.90;;;;;;6064185;23;20195;-80
2021/11/04 11:42:16;;;;;;;7.70;5.43;;;7.80;99.90;;;;;;6145317;23;20469;-80
2021/11/04 11:44:49;;;;;;;7.93;5.30;;;7.80;99.90;;;;;;6146678;23;20333;-80
2021/11/04 11:47:18;;;;;;;7.83;5.27;;;7.80;99.90;;;;;;6144924;23;20150;-80
2021/11/04 11:49:46;;;;;;;7.87;5.47;;;7.80;99.90;;;;;;6145525;23;20514;-78
2021/11/04 11:52:45;;;;;;;8.00;5.37;;;7.80;99.90;;;;;;6145058;23;20231;-80
2021/11/04 11:55:14;;;;;;;9.83;6.10;;;7.80;99.90;;;;;;6118107;23;20194;-82
2021/11/04 11:57:41;;;;;;;7.80;6.03;;;7.80;99.90;;;;;;6145710;23;20624;-80
2021/11/04 12:00:08;;;;;;;8.40;5.90;;;7.80;99.90;;;;;;6145469;23;20215;-80
2021/11/04 12:02:41;;;;;;;7.70;5.97;;;7.90;99.90;;;;;;6118225;23;20160;-80
2021/11/04 12:05:32;;;;;;;7.03;4.97;;;7.80;99.90;;;;;;6119409;23;20199;-80
2021/11/04 12:08:13;;;;;;;6.73;5.30;;;7.90;99.90;;;;;;6125516;23;20688;-81
2021/11/04 12:10:40;;;;;;;8.60;6.03;;;7.80;99.90;;;;;;6145613;23;20431;-81
2021/11/04 12:13:06;;;;;;;8.43;6.10;;;7.80;99.90;;;;;;6121512;23;20466;-78
2021/11/04 12:16:05;;;;;;;8.73;6.23;;;7.80;99.90;;;;;;6148058;23;20158;-80
2021/11/04 12:18:30;;;;;;;8.43;5.37;;;7.80;99.90;;;;;;6147876;23;20195;-81
2021/11/04 12:20:57;;;;;;;7.77;5.33;;;7.70;99.90;;;;;;6121692;23;20254;-81
2021/11/04 12:23:36;;;;;;;8.23;5.77;;;7.80;99.90;;;;;;6148139;23;20156;-80
2021/11/04 12:26:03;;;;;;;10.57;5.10;;;7.70;99.90;;;;;;6147299;23;20166;-80
2021/11/04 12:28:41;;;;;;;8.10;5.83;;;7.70;99.90;;;;;;6122413;23;20499;-80
2021/11/04 12:31:19;;;;;;;7.23;5.23;;;7.70;99.90;;;;;;6147828;23;20147;-81
2021/11/04 12:33:45;;;;;;;9.50;6.03;;;7.70;99.90;;;;;;6148412;23;20158;-81
2021/11/04 12:36:11;;;;;;;6.77;5.57;;;7.70;99.90;;;;;;6122280;23;20164;-80
2021/11/04 12:38:45;;;;;;;7.40;5.67;;;7.80;99.90;;;;;;6148275;23;20192;-80
2021/11/04 12:41:15;;;;;;;7.13;5.67;;;7.80;99.90;;;;;;6152009;23;20668;-80
2021/11/04 12:43:42;;;;;;;5.77;4.73;;;7.80;99.90;;;;;;6125767;23;20174;-80
2021/11/04 12:46:26;;;;;;;8.13;5.93;;;7.80;99.90;;;;;;6152023;23;20162;-80
2021/11/04 12:48:56;;;;;;;8.03;5.40;;;7.80;99.90;;;;;;6125241;23;20845;-79
2021/11/04 12:51:27;;;;;;;8.17;5.40;;;7.70;99.90;;;;;;6151420;23;20620;-80
2021/11/04 12:54:00;;;;;;;6.53;5.43;;;7.70;99.90;;;;;;6151006;23;20592;-81
2021/11/04 12:56:39;;;;;;;7.93;4.97;;;7.70;99.90;;;;;;6150377;23;20227;-80
2021/11/04 12:59:04;;;;;;;8.17;5.73;;;7.60;99.90;;;;;;6125703;23;20195;-80